createdAt,value
2018-03-04T00:00:09.462Z,51.37
2018-03-04T00:01:12.862Z,49.45
2018-03-04T00:02:16.340Z,51.25
2018-03-04T00:03:19.671Z,50.12
2018-03-04T00:04:23.344Z,52.40
2018-03-04T00:05:26.713Z,51.00
2018-03-04T00:06:30.200Z,50.47
2018-03-04T00:07:33.509Z,52.95
2018-03-04T00:08:36.886Z,53.47
2018-03-04T00:09:40.255Z,50.15
2018-03-04T00:10:43.585Z,50.08
2018-03-04T00:11:46.953Z,51.50
2018-03-04T00:12:50.346Z,52.22
2018-03-04T00:13:53.745Z,52.35
2018-03-04T00:14:57.079Z,53.00
2018-03-04T00:16:00.457Z,50.70
2018-03-04T00:17:03.858Z,53.95
2018-03-04T00:18:07.187Z,53.42
2018-03-04T00:19:10.512Z,51.65
2018-03-04T00:20:13.827Z,46.97
2018-03-04T00:21:17.146Z,50.65
2018-03-04T00:22:20.548Z,51.10
2018-03-04T00:23:23.894Z,54.08
2018-03-04T00:24:27.284Z,47.47
2018-03-04T00:25:30.636Z,50.80
2018-03-04T00:26:34.015Z,53.70
2018-03-04T00:27:37.330Z,44.25
2018-03-04T00:28:40.689Z,50.67
2018-03-04T00:29:44.080Z,52.78
2018-03-04T00:30:47.493Z,54.38
2018-03-04T00:31:50.879Z,54.15
2018-03-04T00:32:54.195Z,50.30
2018-03-04T00:33:57.549Z,53.63
2018-03-04T00:35:00.928Z,55.10
2018-03-04T00:36:04.392Z,51.40
2018-03-04T00:37:07.782Z,51.00
2018-03-04T00:38:11.113Z,53.72
2018-03-04T00:39:14.513Z,52.50
2018-03-04T00:40:17.855Z,53.25
2018-03-04T00:41:21.178Z,52.05
2018-03-04T00:42:24.521Z,51.03
2018-03-04T00:43:27.945Z,50.80
2018-03-04T00:44:31.297Z,52.55
2018-03-04T00:45:34.686Z,53.83
2018-03-04T00:46:38.176Z,51.47
2018-03-04T00:47:41.480Z,53.80
2018-03-04T00:48:44.821Z,49.95
2018-03-04T00:49:48.228Z,54.65
2018-03-04T00:50:51.559Z,56.15
2018-03-04T00:51:54.961Z,52.38
2018-03-04T00:52:58.256Z,53.30
2018-03-04T00:54:01.646Z,52.45
2018-03-04T00:55:04.981Z,50.60
2018-03-04T00:56:08.347Z,54.92
2018-03-04T00:57:11.652Z,55.55
2018-03-04T00:58:14.985Z,43.17
2018-03-04T00:59:18.329Z,51.58
2018-03-04T01:00:21.740Z,52.35
2018-03-04T01:01:25.075Z,54.30
2018-03-04T01:02:28.501Z,54.50
2018-03-04T01:03:31.895Z,55.92
2018-03-04T01:04:35.431Z,55.17
2018-03-04T01:05:38.856Z,55.22
2018-03-04T01:06:42.245Z,54.97
2018-03-04T01:07:45.584Z,54.75
2018-03-04T01:08:48.977Z,54.80
2018-03-04T01:09:52.303Z,54.28
2018-03-04T01:10:55.732Z,54.33
2018-03-04T01:11:59.072Z,51.67
2018-03-04T01:13:02.444Z,55.53
2018-03-04T01:14:05.802Z,56.25
2018-03-04T01:15:09.249Z,51.25
2018-03-04T01:16:12.565Z,49.90
2018-03-04T01:17:15.993Z,50.95
2018-03-04T01:18:19.411Z,54.78
2018-03-04T01:19:22.776Z,55.28
2018-03-04T01:20:26.082Z,51.75
2018-03-04T01:21:29.433Z,54.78
2018-03-04T01:22:32.814Z,51.55
2018-03-04T01:23:36.109Z,56.72
2018-03-04T01:24:39.571Z,55.20
2018-03-04T01:25:42.908Z,54.47
2018-03-04T01:26:46.240Z,55.83
2018-03-04T01:27:49.573Z,53.90
2018-03-04T01:28:52.887Z,54.05
2018-03-04T01:29:56.239Z,55.40
2018-03-04T01:30:59.705Z,54.75
2018-03-04T01:32:03.160Z,53.75
2018-03-04T01:33:06.500Z,54.55
2018-03-04T01:34:09.903Z,51.85
2018-03-04T01:35:13.321Z,54.90
2018-03-04T01:36:16.666Z,51.92
2018-03-04T01:37:20.049Z,56.00
2018-03-04T01:38:23.470Z,54.45
2018-03-04T01:39:26.834Z,54.42
2018-03-04T01:40:30.181Z,55.63
2018-03-04T01:41:33.525Z,57.80
2018-03-04T01:42:36.852Z,51.85
2018-03-04T01:43:40.230Z,57.40
2018-03-04T01:44:43.593Z,53.45
2018-03-04T01:45:46.917Z,55.20
2018-03-04T01:46:50.261Z,54.53
2018-03-04T01:47:53.713Z,53.87
2018-03-04T01:48:57.040Z,56.17
2018-03-04T01:50:00.344Z,49.90
2018-03-04T01:51:03.673Z,53.28
2018-03-04T01:52:07.048Z,55.90
2018-03-04T01:53:10.499Z,56.60
2018-03-04T01:54:13.882Z,53.97
2018-03-04T01:55:17.214Z,51.40
2018-03-04T01:56:20.529Z,51.50
2018-03-04T01:57:23.885Z,51.42
2018-03-04T01:58:27.296Z,54.25
2018-03-04T01:59:30.616Z,56.60
2018-03-04T02:00:33.958Z,54.25
2018-03-04T02:01:37.388Z,51.88
2018-03-04T02:02:40.758Z,53.05
2018-03-04T02:03:44.121Z,54.33
2018-03-04T02:04:47.797Z,54.60
2018-03-04T02:05:51.133Z,55.55
2018-03-04T02:06:54.582Z,54.95
2018-03-04T02:07:57.945Z,52.30
2018-03-04T02:09:01.454Z,57.28
2018-03-04T02:10:04.814Z,56.47
2018-03-04T02:11:08.140Z,55.40
2018-03-04T02:12:11.600Z,54.72
2018-03-04T02:13:14.910Z,52.10
2018-03-04T02:14:18.260Z,49.38
2018-03-04T02:15:21.662Z,56.40
2018-03-04T02:16:24.966Z,50.92
2018-03-04T02:17:28.315Z,53.55
2018-03-04T02:18:31.704Z,52.25
2018-03-04T02:19:35.121Z,54.15
2018-03-04T02:20:38.495Z,53.80
2018-03-04T02:21:41.824Z,55.28
2018-03-04T02:22:45.132Z,54.38
2018-03-04T02:23:48.451Z,54.30
2018-03-04T02:24:51.844Z,56.70
2018-03-04T02:25:55.176Z,53.70
2018-03-04T02:26:58.485Z,53.90
2018-03-04T02:28:01.873Z,54.55
2018-03-04T02:29:05.398Z,53.67
2018-03-04T02:30:08.784Z,53.22
2018-03-04T02:31:12.134Z,57.75
2018-03-04T02:32:15.446Z,54.25
2018-03-04T02:33:18.862Z,56.47
2018-03-04T02:34:22.182Z,51.78
2018-03-04T02:35:25.576Z,57.15
2018-03-04T02:36:28.914Z,54.55
2018-03-04T02:37:32.242Z,52.10
2018-03-04T02:38:35.711Z,50.90
2018-03-04T02:39:39.018Z,50.05
2018-03-04T02:40:42.371Z,55.45
2018-03-04T02:41:45.786Z,55.25
2018-03-04T02:42:49.104Z,53.60
2018-03-04T02:43:52.453Z,53.83
2018-03-04T02:44:55.848Z,54.17
2018-03-04T02:45:59.284Z,53.20
2018-03-04T02:47:02.605Z,51.63
2018-03-04T02:48:05.966Z,53.78
2018-03-04T02:49:09.337Z,54.65
2018-03-04T02:50:12.724Z,52.33
2018-03-04T02:51:16.459Z,50.38
2018-03-04T02:52:19.774Z,53.20
2018-03-04T02:53:23.125Z,55.45
2018-03-04T02:54:26.425Z,52.00
2018-03-04T02:55:29.797Z,53.78
2018-03-04T02:56:33.184Z,54.45
2018-03-04T02:57:36.487Z,55.35
2018-03-04T02:59:03.117Z,54.13
2018-03-04T03:00:06.461Z,53.60
2018-03-04T03:01:09.805Z,53.70
2018-03-04T03:02:13.131Z,55.72
2018-03-04T03:03:16.465Z,53.55
2018-03-04T03:04:19.838Z,44.78
2018-03-04T03:05:23.270Z,52.35
2018-03-04T03:06:26.795Z,52.72
2018-03-04T03:07:30.130Z,51.63
2018-03-04T03:08:33.442Z,51.10
2018-03-04T03:09:36.880Z,54.53
2018-03-04T03:10:40.260Z,53.80
2018-03-04T03:11:43.569Z,53.50
2018-03-04T03:12:46.967Z,53.00
2018-03-04T03:13:50.316Z,52.25
2018-03-04T03:14:53.624Z,53.28
2018-03-04T03:15:57.012Z,54.40
2018-03-04T03:17:00.353Z,43.28
2018-03-04T03:18:03.765Z,54.65
2018-03-04T03:19:07.124Z,53.05
2018-03-04T03:20:10.422Z,54.15
2018-03-04T03:21:13.766Z,53.55
2018-03-04T03:22:17.082Z,50.75
2018-03-04T03:23:20.487Z,52.88
2018-03-04T03:24:23.821Z,57.17
2018-03-04T03:25:27.209Z,52.10
2018-03-04T03:26:30.527Z,53.65
2018-03-04T03:27:33.860Z,52.40
2018-03-04T03:28:37.211Z,50.65
2018-03-04T03:29:40.543Z,53.40
2018-03-04T03:30:43.881Z,56.75
2018-03-04T03:31:47.241Z,55.67
2018-03-04T03:32:50.554Z,52.50
2018-03-04T03:33:53.957Z,51.10
2018-03-04T03:34:57.268Z,50.28
2018-03-04T03:36:00.620Z,55.08
2018-03-04T03:37:03.938Z,53.58
2018-03-04T03:38:07.275Z,53.65
2018-03-04T03:39:10.717Z,52.25
2018-03-04T03:40:14.072Z,51.97
2018-03-04T03:41:17.408Z,53.65
2018-03-04T03:42:20.753Z,49.92
2018-03-04T03:43:24.078Z,53.35
2018-03-04T03:44:27.580Z,57.13
2018-03-04T03:45:30.916Z,49.40
2018-03-04T03:46:34.221Z,51.88
2018-03-04T03:47:37.665Z,52.72
2018-03-04T03:48:41.016Z,51.13
2018-03-04T03:49:44.441Z,50.67
2018-03-04T03:50:47.784Z,51.20
2018-03-04T03:51:51.085Z,50.03
2018-03-04T03:52:54.449Z,48.67
2018-03-04T03:53:57.778Z,51.45
2018-03-04T03:55:01.166Z,52.22
2018-03-04T03:56:04.564Z,55.58
2018-03-04T03:57:07.928Z,50.12
2018-03-04T03:58:11.221Z,52.28
2018-03-04T03:59:14.608Z,49.70
2018-03-04T04:00:18.032Z,54.75
2018-03-04T04:01:21.334Z,52.10
2018-03-04T04:02:24.825Z,49.75
2018-03-04T04:03:28.132Z,51.97
2018-03-04T04:04:31.450Z,51.15
2018-03-04T04:05:35.018Z,53.25
2018-03-04T04:06:38.424Z,46.47
2018-03-04T04:07:41.773Z,52.80
2018-03-04T04:08:45.162Z,51.05
2018-03-04T04:09:48.562Z,49.35
2018-03-04T04:10:51.920Z,50.88
2018-03-04T04:11:55.268Z,50.47
2018-03-04T04:12:58.648Z,50.90
2018-03-04T04:14:02.042Z,51.63
2018-03-04T04:15:05.360Z,52.35
2018-03-04T04:16:08.747Z,51.30
2018-03-04T04:17:12.106Z,51.25
2018-03-04T04:18:15.408Z,53.70
2018-03-04T04:19:18.748Z,52.45
2018-03-04T04:20:22.109Z,50.72
2018-03-04T04:21:25.470Z,55.12
2018-03-04T04:22:28.806Z,53.38
2018-03-04T04:23:32.191Z,51.67
2018-03-04T04:24:35.524Z,51.30
2018-03-04T04:25:38.956Z,49.88
2018-03-04T04:26:42.295Z,51.03
2018-03-04T04:27:45.626Z,51.85
2018-03-04T04:28:48.949Z,50.88
2018-03-04T04:29:52.357Z,52.67
2018-03-04T04:30:55.679Z,47.35
2018-03-04T04:31:59.013Z,50.92
2018-03-04T04:33:02.349Z,49.20
2018-03-04T04:34:05.681Z,53.85
2018-03-04T04:35:09.023Z,52.70
2018-03-04T04:36:12.340Z,53.00
2018-03-04T04:37:15.732Z,48.72
2018-03-04T04:38:19.086Z,51.37
2018-03-04T04:39:22.397Z,49.35
2018-03-04T04:40:25.803Z,49.80
2018-03-04T04:41:29.132Z,51.08
2018-03-04T04:42:32.522Z,51.63
2018-03-04T04:43:35.837Z,50.03
2018-03-04T04:44:39.214Z,52.20
2018-03-04T04:45:42.519Z,52.00
2018-03-04T04:46:45.841Z,52.62
2018-03-04T04:47:49.232Z,52.95
2018-03-04T04:48:52.579Z,51.85
2018-03-04T04:49:55.906Z,49.50
2018-03-04T04:50:59.290Z,52.33
2018-03-04T04:52:02.623Z,51.80
2018-03-04T04:53:06.040Z,51.35
2018-03-04T04:54:09.347Z,51.70
2018-03-04T04:55:12.694Z,50.53
2018-03-04T04:56:16.147Z,51.85
2018-03-04T04:57:19.557Z,48.72
2018-03-04T04:58:22.936Z,48.78
2018-03-04T04:59:26.292Z,52.33
2018-03-04T05:00:29.572Z,47.33
2018-03-04T05:01:32.999Z,50.17
2018-03-04T05:02:36.415Z,54.33
2018-03-04T05:03:39.797Z,49.13
2018-03-04T05:04:43.198Z,50.58
2018-03-04T05:05:46.833Z,50.28
2018-03-04T05:06:50.229Z,49.58
2018-03-04T05:07:53.549Z,51.63
2018-03-04T05:08:56.910Z,49.33
2018-03-04T05:10:00.297Z,50.92
2018-03-04T05:11:03.603Z,51.55
2018-03-04T05:12:06.957Z,50.63
2018-03-04T05:13:10.303Z,50.47
2018-03-04T05:14:13.710Z,51.78
2018-03-04T05:15:17.061Z,50.72
2018-03-04T05:16:20.432Z,49.40
2018-03-04T05:17:23.745Z,53.47
2018-03-04T05:18:27.086Z,52.90
2018-03-04T05:19:30.478Z,50.25
2018-03-04T05:20:33.795Z,49.67
2018-03-04T05:21:37.194Z,49.35
2018-03-04T05:22:40.571Z,51.55
2018-03-04T05:23:43.895Z,52.97
2018-03-04T05:24:47.258Z,49.53
2018-03-04T05:25:50.565Z,52.13
2018-03-04T05:26:53.963Z,49.50
2018-03-04T05:27:57.283Z,45.42
2018-03-04T05:29:00.660Z,50.90
2018-03-04T05:30:04.058Z,51.90
2018-03-04T05:31:07.395Z,48.90
2018-03-04T05:32:10.715Z,51.85
2018-03-04T05:33:14.131Z,51.50
2018-03-04T05:34:17.501Z,51.35
2018-03-04T05:35:20.874Z,52.90
2018-03-04T05:36:24.233Z,51.28
2018-03-04T05:37:27.608Z,53.42
2018-03-04T05:38:31.000Z,53.00
2018-03-04T05:39:34.333Z,48.25
2018-03-04T05:40:37.712Z,49.97
2018-03-04T05:41:41.056Z,52.13
2018-03-04T05:42:44.380Z,52.62
2018-03-04T05:43:47.756Z,51.72
2018-03-04T05:44:51.096Z,48.03
2018-03-04T05:45:54.564Z,50.10
2018-03-04T05:46:57.919Z,47.28
2018-03-04T05:48:01.321Z,50.75
2018-03-04T05:49:04.646Z,50.72
2018-03-04T05:50:08.039Z,53.40
2018-03-04T05:51:11.452Z,52.38
2018-03-04T05:52:14.806Z,52.03
2018-03-04T05:53:18.121Z,50.33
2018-03-04T05:54:21.481Z,50.65
2018-03-04T05:55:24.833Z,53.30
2018-03-04T05:56:28.342Z,51.55
2018-03-04T05:57:31.744Z,51.35
2018-03-04T05:58:35.133Z,53.25
2018-03-04T05:59:38.502Z,53.25
2018-03-04T06:00:41.825Z,50.80
2018-03-04T06:01:45.234Z,52.22
2018-03-04T06:02:48.599Z,50.35
2018-03-04T06:03:51.945Z,52.38
2018-03-04T06:04:55.372Z,48.17
2018-03-04T06:05:58.831Z,49.58
2018-03-04T06:07:02.169Z,50.97
2018-03-04T06:08:05.515Z,49.05
2018-03-04T06:09:08.881Z,49.17
2018-03-04T06:10:12.224Z,49.70
2018-03-04T06:11:15.601Z,51.35
2018-03-04T06:12:19.063Z,50.72
2018-03-04T06:13:22.365Z,50.53
2018-03-04T06:14:25.701Z,49.13
2018-03-04T06:15:29.091Z,50.88
2018-03-04T06:16:32.484Z,52.85
2018-03-04T06:17:35.845Z,48.28
2018-03-04T06:18:39.281Z,50.38
2018-03-04T06:19:42.638Z,47.97
2018-03-04T06:20:45.977Z,54.58
2018-03-04T06:21:49.337Z,51.95
2018-03-04T06:22:52.728Z,49.40
2018-03-04T06:23:56.029Z,45.38
2018-03-04T06:24:59.356Z,51.80
2018-03-04T06:26:02.674Z,46.30
2018-03-04T06:27:06.039Z,52.45
2018-03-04T06:28:09.372Z,52.75
2018-03-04T06:29:12.739Z,45.35
2018-03-04T06:30:16.121Z,50.25
2018-03-04T06:31:19.533Z,48.28
2018-03-04T06:32:22.916Z,50.25
2018-03-04T06:33:26.462Z,49.08
2018-03-04T06:34:29.765Z,49.20
2018-03-04T06:35:33.090Z,47.78
2018-03-04T06:36:36.477Z,51.22
2018-03-04T06:37:39.771Z,50.30
2018-03-04T06:38:43.133Z,50.10
2018-03-04T06:39:46.466Z,45.28
2018-03-04T06:40:49.834Z,51.80
2018-03-04T06:41:53.211Z,51.13
2018-03-04T06:42:56.520Z,48.78
2018-03-04T06:44:00.913Z,51.40
2018-03-04T06:45:04.320Z,48.38
2018-03-04T06:46:07.738Z,49.50
2018-03-04T06:47:11.052Z,47.97
2018-03-04T06:48:14.400Z,49.42
2018-03-04T06:49:17.781Z,51.05
2018-03-04T06:50:21.157Z,50.28
2018-03-04T06:51:24.493Z,48.17
2018-03-04T06:52:27.953Z,49.45
2018-03-04T06:53:31.338Z,48.22
2018-03-04T06:54:34.691Z,47.13
2018-03-04T06:55:38.007Z,48.22
2018-03-04T06:56:41.348Z,49.53
2018-03-04T06:57:44.727Z,50.53
2018-03-04T06:58:48.039Z,49.35
2018-03-04T06:59:51.374Z,50.00
2018-03-04T07:00:54.760Z,50.38
2018-03-04T07:01:58.089Z,45.67
2018-03-04T07:03:01.457Z,49.03
2018-03-04T07:04:04.804Z,42.15
2018-03-04T07:05:08.190Z,49.35
2018-03-04T07:06:11.578Z,47.80
2018-03-04T07:07:14.919Z,47.72
2018-03-04T07:08:18.259Z,47.08
2018-03-04T07:09:21.589Z,50.15
2018-03-04T07:10:25.037Z,47.10
2018-03-04T07:11:28.374Z,44.72
2018-03-04T07:12:31.720Z,45.80
2018-03-04T07:13:35.054Z,46.63
2018-03-04T07:14:38.621Z,47.45
2018-03-04T07:15:41.992Z,46.28
2018-03-04T07:16:45.317Z,48.08
2018-03-04T07:17:48.696Z,48.95
2018-03-04T07:18:52.058Z,43.78
2018-03-04T07:19:55.435Z,46.17
2018-03-04T07:20:58.776Z,43.40
2018-03-04T07:22:02.230Z,46.35
2018-03-04T07:23:05.593Z,42.67
2018-03-04T07:24:08.922Z,46.50
2018-03-04T07:25:12.243Z,45.78
2018-03-04T07:26:15.599Z,43.65
2018-03-04T07:27:19.039Z,45.70
2018-03-04T07:28:22.438Z,43.00
2018-03-04T07:29:25.774Z,39.60
2018-03-04T07:30:29.055Z,44.58
2018-03-04T07:31:32.480Z,45.03
2018-03-04T07:32:35.955Z,42.75
2018-03-04T07:33:39.389Z,45.10
2018-03-04T07:34:42.800Z,43.25
2018-03-04T07:35:46.188Z,45.10
2018-03-04T07:36:49.545Z,42.45
2018-03-04T07:37:53.110Z,42.33
2018-03-04T07:38:56.521Z,43.17
2018-03-04T07:39:59.824Z,44.72
2018-03-04T07:41:03.153Z,44.03
2018-03-04T07:42:06.583Z,42.67
2018-03-04T07:43:09.927Z,41.33
2018-03-04T07:44:13.298Z,43.53
2018-03-04T07:45:16.622Z,42.05
2018-03-04T07:46:20.014Z,43.72
2018-03-04T07:47:23.504Z,41.67
2018-03-04T07:48:26.910Z,41.00
2018-03-04T07:49:30.235Z,40.83
2018-03-04T07:50:33.555Z,41.55
2018-03-04T07:51:36.964Z,40.88
2018-03-04T07:52:40.369Z,41.22
2018-03-04T07:53:43.751Z,41.90
2018-03-04T07:54:47.167Z,38.17
2018-03-04T07:55:50.627Z,40.70
2018-03-04T07:56:53.988Z,40.22
2018-03-04T07:57:57.341Z,45.75
2018-03-04T07:59:00.684Z,41.15
2018-03-04T08:00:04.027Z,41.30
2018-03-04T08:01:07.381Z,38.20
2018-03-04T08:02:10.801Z,39.53
2018-03-04T08:03:14.256Z,43.42
2018-03-04T08:04:17.574Z,41.75
2018-03-04T08:05:20.960Z,40.33
2018-03-04T08:06:24.551Z,37.90
2018-03-04T08:07:27.899Z,40.88
2018-03-04T08:08:31.243Z,39.67
2018-03-04T08:09:34.675Z,40.15
2018-03-04T08:10:37.997Z,42.78
2018-03-04T08:11:41.314Z,39.30
2018-03-04T08:12:44.639Z,40.25
2018-03-04T08:13:48.003Z,37.58
2018-03-04T08:14:51.337Z,41.85
2018-03-04T08:15:54.822Z,40.30
2018-03-04T08:16:58.146Z,40.88
2018-03-04T08:18:01.564Z,38.78
2018-03-04T08:19:04.916Z,38.50
2018-03-04T08:20:08.270Z,39.50
2018-03-04T08:21:11.585Z,38.55
2018-03-04T08:22:14.918Z,41.17
2018-03-04T08:23:18.274Z,40.38
2018-03-04T08:24:33.392Z,38.33
2018-03-04T08:25:36.736Z,37.17
2018-03-04T08:26:51.837Z,37.47
2018-03-04T08:28:06.969Z,36.60
2018-03-04T08:29:10.276Z,34.47
2018-03-04T08:30:13.784Z,38.10
2018-03-04T08:31:17.168Z,38.10
2018-03-04T08:32:20.463Z,40.30
2018-03-04T08:33:23.878Z,40.45
2018-03-04T08:34:27.207Z,36.30
2018-03-04T08:35:30.571Z,36.47
2018-03-04T08:36:33.876Z,36.80
2018-03-04T08:37:37.258Z,36.35
2018-03-04T08:38:40.644Z,37.00
2018-03-04T08:39:44.040Z,37.97
2018-03-04T08:40:47.440Z,33.92
2018-03-04T08:41:50.848Z,34.88
2018-03-04T08:42:54.186Z,36.58
2018-03-04T08:43:57.531Z,37.65
2018-03-04T08:45:00.847Z,35.38
2018-03-04T08:46:04.270Z,35.97
2018-03-04T08:47:07.575Z,36.55
2018-03-04T08:48:10.991Z,39.13
2018-03-04T08:49:14.328Z,36.85
2018-03-04T08:50:17.717Z,34.85
2018-03-04T08:51:21.100Z,34.00
2018-03-04T08:52:24.652Z,38.47
2018-03-04T08:53:27.999Z,38.28
2018-03-04T08:54:31.367Z,34.85
2018-03-04T08:55:34.704Z,35.70
2018-03-04T08:56:38.132Z,36.05
2018-03-04T08:57:41.419Z,32.38
2018-03-04T08:58:44.743Z,34.03
2018-03-04T08:59:48.141Z,36.30
2018-03-04T09:00:51.489Z,34.90
2018-03-04T09:01:54.822Z,34.72
2018-03-04T09:02:58.184Z,34.50
2018-03-04T09:04:01.607Z,36.40
2018-03-04T09:05:04.955Z,34.47
2018-03-04T09:06:08.277Z,39.97
2018-03-04T09:07:11.949Z,36.42
2018-03-04T09:08:15.261Z,35.65
2018-03-04T09:09:18.600Z,34.75
2018-03-04T09:10:21.959Z,34.17
2018-03-04T09:11:25.334Z,37.35
2018-03-04T09:12:28.716Z,38.25
2018-03-04T09:13:32.049Z,35.50
2018-03-04T09:14:35.497Z,33.25
2018-03-04T09:15:38.815Z,32.65
2018-03-04T09:16:42.223Z,35.13
2018-03-04T09:17:45.678Z,35.28
2018-03-04T09:18:49.017Z,35.40
2018-03-04T09:19:52.355Z,33.65
2018-03-04T09:20:55.706Z,35.78
2018-03-04T09:21:59.164Z,38.60
2018-03-04T09:23:02.498Z,35.42
2018-03-04T09:24:05.872Z,36.67
2018-03-04T09:25:09.305Z,34.15
2018-03-04T09:26:12.605Z,35.83
2018-03-04T09:27:15.914Z,35.75
2018-03-04T09:28:19.335Z,34.42
2018-03-04T09:29:22.779Z,35.13
2018-03-04T09:30:26.188Z,38.75
2018-03-04T09:31:29.841Z,40.03
2018-03-04T09:32:33.168Z,37.88
2018-03-04T09:33:36.525Z,38.00
2018-03-04T09:34:39.911Z,38.22
2018-03-04T09:35:43.350Z,36.20
2018-03-04T09:36:46.767Z,40.53
2018-03-04T09:37:50.172Z,37.75
2018-03-04T09:38:53.569Z,37.85
2018-03-04T09:39:57.046Z,39.80
2018-03-04T09:41:00.344Z,36.72
2018-03-04T09:42:03.818Z,38.90
2018-03-04T09:43:07.208Z,36.97
2018-03-04T09:44:10.677Z,33.85
2018-03-04T09:45:14.004Z,35.25
2018-03-04T09:46:17.378Z,34.38
2018-03-04T09:47:20.750Z,34.78
2018-03-04T09:48:24.076Z,35.45
2018-03-04T09:49:27.440Z,34.50
2018-03-04T09:50:30.876Z,35.83
2018-03-04T09:51:34.205Z,33.40
2018-03-04T09:52:37.601Z,35.50
2018-03-04T09:53:40.968Z,35.50
2018-03-04T09:54:44.353Z,36.35
2018-03-04T09:55:47.661Z,34.90
2018-03-04T09:56:51.042Z,35.08
2018-03-04T09:57:54.447Z,35.70
2018-03-04T09:58:57.908Z,34.97
2018-03-04T10:00:01.281Z,35.95
2018-03-04T10:01:04.615Z,35.22
2018-03-04T10:02:07.996Z,33.90
2018-03-04T10:03:11.329Z,38.33
2018-03-04T10:04:14.813Z,35.72
2018-03-04T10:05:18.159Z,34.95
2018-03-04T10:06:21.603Z,34.95
2018-03-04T10:07:25.274Z,35.92
2018-03-04T10:08:28.569Z,34.22
2018-03-04T10:09:31.901Z,33.60
2018-03-04T10:10:35.271Z,36.40
2018-03-04T10:11:38.599Z,34.63
2018-03-04T10:12:41.981Z,36.97
2018-03-04T10:13:45.334Z,37.80
2018-03-04T10:14:48.701Z,34.50
2018-03-04T10:15:52.060Z,31.73
2018-03-04T10:16:55.382Z,31.87
2018-03-04T10:17:58.890Z,34.35
2018-03-04T10:19:02.227Z,37.65
2018-03-04T10:20:05.529Z,33.38
2018-03-04T10:21:08.960Z,34.95
2018-03-04T10:22:12.344Z,32.30
2018-03-04T10:23:18.521Z,34.33
2018-03-04T10:24:21.985Z,35.88
2018-03-04T10:25:25.369Z,35.40
2018-03-04T10:26:28.862Z,34.92
2018-03-04T10:27:32.226Z,33.20
2018-03-04T10:28:35.645Z,34.75
2018-03-04T10:29:38.959Z,34.75
2018-03-04T10:30:42.264Z,36.22
2018-03-04T10:31:45.609Z,30.75
2018-03-04T10:32:48.932Z,35.95
2018-03-04T10:33:52.244Z,33.15
2018-03-04T10:34:55.593Z,32.42
2018-03-04T10:35:58.990Z,31.23
2018-03-04T10:37:02.328Z,33.05
2018-03-04T10:38:05.693Z,32.55
2018-03-04T10:39:09.036Z,32.67
2018-03-04T10:40:12.393Z,31.65
2018-03-04T10:41:15.753Z,34.35
2018-03-04T10:42:19.094Z,32.63
2018-03-04T10:43:22.438Z,33.17
2018-03-04T10:44:25.991Z,35.42
2018-03-04T10:45:29.381Z,33.15
2018-03-04T10:46:32.713Z,31.35
2018-03-04T10:47:36.167Z,31.92
2018-03-04T10:48:39.553Z,28.40
2018-03-04T10:49:42.943Z,32.30
2018-03-04T10:50:46.314Z,33.05
2018-03-04T10:51:49.744Z,32.00
2018-03-04T10:52:53.087Z,32.90
2018-03-04T10:53:56.480Z,31.52
2018-03-04T10:54:59.889Z,33.65
2018-03-04T10:56:03.231Z,32.38
2018-03-04T10:57:06.631Z,31.83
2018-03-04T10:58:10.136Z,32.53
2018-03-04T10:59:13.498Z,32.50
2018-03-04T11:00:16.815Z,31.87
2018-03-04T11:01:20.189Z,33.25
2018-03-04T11:02:23.535Z,33.17
2018-03-04T11:03:26.887Z,33.47
2018-03-04T11:04:30.179Z,33.25
2018-03-04T11:05:33.538Z,31.35
2018-03-04T11:06:37.002Z,33.15
2018-03-04T11:07:40.479Z,31.75
2018-03-04T11:08:43.853Z,32.35
2018-03-04T11:09:47.225Z,34.20
2018-03-04T11:10:50.601Z,32.03
2018-03-04T11:11:54.014Z,31.65
2018-03-04T11:12:57.409Z,31.02
2018-03-04T11:14:00.799Z,31.65
2018-03-04T11:15:04.246Z,34.72
2018-03-04T11:16:07.579Z,31.10
2018-03-04T11:17:10.909Z,31.83
2018-03-04T11:18:14.284Z,29.85
2018-03-04T11:19:17.712Z,32.30
2018-03-04T11:20:21.090Z,30.95
2018-03-04T11:21:24.418Z,30.00
2018-03-04T11:22:28.326Z,31.90
2018-03-04T11:23:31.790Z,31.33
2018-03-04T11:24:35.223Z,29.60
2018-03-04T11:25:38.547Z,29.83
2018-03-04T11:26:41.892Z,28.70
2018-03-04T11:27:46.112Z,30.48
2018-03-04T11:28:49.452Z,30.55
2018-03-04T11:29:52.874Z,29.15
2018-03-04T11:30:56.200Z,29.40
2018-03-04T11:31:59.556Z,29.40
2018-03-04T11:33:02.933Z,29.35
2018-03-04T11:34:06.407Z,33.05
2018-03-04T11:35:09.782Z,33.10
2018-03-04T11:36:13.165Z,30.20
2018-03-04T11:37:16.468Z,29.25
2018-03-04T11:38:19.841Z,29.10
2018-03-04T11:39:23.231Z,32.10
2018-03-04T11:40:26.559Z,30.83
2018-03-04T11:41:29.902Z,30.67
2018-03-04T11:42:33.217Z,29.50
2018-03-04T11:43:36.530Z,30.00
2018-03-04T11:44:39.846Z,31.05
2018-03-04T11:45:43.298Z,31.70
2018-03-04T11:46:46.723Z,29.60
2018-03-04T11:47:50.209Z,30.50
2018-03-04T11:48:53.697Z,32.65
2018-03-04T11:49:57.028Z,33.47
2018-03-04T11:51:00.461Z,30.88
2018-03-04T11:52:03.844Z,29.95
2018-03-04T11:53:07.185Z,30.35
2018-03-04T11:54:10.509Z,27.83
2018-03-04T11:55:13.918Z,28.77
2018-03-04T11:56:17.314Z,29.65
2018-03-04T11:57:20.629Z,28.48
2018-03-04T11:58:24.036Z,28.10
2018-03-04T11:59:27.435Z,28.90
2018-03-04T12:00:30.881Z,30.10
2018-03-04T12:01:34.299Z,30.42
2018-03-04T12:02:37.629Z,30.40
2018-03-04T12:03:40.941Z,27.25
2018-03-04T12:04:44.322Z,26.90
2018-03-04T12:05:47.709Z,26.15
2018-03-04T12:06:51.096Z,25.50
2018-03-04T12:07:54.515Z,28.12
2018-03-04T12:08:57.828Z,25.33
2018-03-04T12:10:01.203Z,27.42
2018-03-04T12:11:04.512Z,25.62
2018-03-04T12:12:07.864Z,26.12
2018-03-04T12:13:11.277Z,28.30
2018-03-04T12:14:14.600Z,27.02
2018-03-04T12:15:18.037Z,27.73
2018-03-04T12:16:21.427Z,29.80
2018-03-04T12:17:24.791Z,28.45
2018-03-04T12:18:28.124Z,27.77
2018-03-04T12:19:31.427Z,28.58
2018-03-04T12:20:34.761Z,29.70
2018-03-04T12:21:38.402Z,28.12
2018-03-04T12:22:41.721Z,26.08
2018-03-04T12:23:45.106Z,30.20
2018-03-04T12:24:48.444Z,28.45
2018-03-04T12:25:51.793Z,28.65
2018-03-04T12:26:55.143Z,29.30
2018-03-04T12:27:58.547Z,28.80
2018-03-04T12:29:01.957Z,27.35
2018-03-04T12:30:05.406Z,26.77
2018-03-04T12:31:08.762Z,27.62
2018-03-04T12:32:12.097Z,28.67
2018-03-04T12:33:15.574Z,27.95
2018-03-04T12:34:19.024Z,28.08
2018-03-04T12:35:22.373Z,31.08
2018-03-04T12:36:25.806Z,27.95
2018-03-04T12:37:29.135Z,28.98
2018-03-04T12:38:32.542Z,27.62
2018-03-04T12:39:35.863Z,28.02
2018-03-04T12:40:39.205Z,30.52
2018-03-04T12:41:42.608Z,29.50
2018-03-04T12:42:45.932Z,27.40
2018-03-04T12:43:49.307Z,27.23
2018-03-04T12:44:52.718Z,30.50
2018-03-04T12:45:56.060Z,26.83
2018-03-04T12:46:59.513Z,27.58
2018-03-04T12:48:02.982Z,27.45
2018-03-04T12:49:06.370Z,29.63
2018-03-04T12:50:09.809Z,28.05
2018-03-04T12:51:13.121Z,28.23
2018-03-04T12:52:16.446Z,26.87
2018-03-04T12:53:19.768Z,27.25
2018-03-04T12:54:23.245Z,29.55
2018-03-04T12:55:26.657Z,26.05
2018-03-04T12:56:30.052Z,29.73
2018-03-04T12:57:33.357Z,27.65
2018-03-04T12:58:36.972Z,29.42
2018-03-04T12:59:40.308Z,26.62
2018-03-04T13:00:43.741Z,28.48
2018-03-04T13:01:47.181Z,27.90
2018-03-04T13:02:50.512Z,25.20
2018-03-04T13:03:53.882Z,27.35
2018-03-04T13:04:57.305Z,26.40
2018-03-04T13:06:00.617Z,26.05
2018-03-04T13:07:04.134Z,26.02
2018-03-04T13:08:07.918Z,24.45
2018-03-04T13:09:11.240Z,22.73
2018-03-04T13:10:14.653Z,20.55
2018-03-04T13:11:18.060Z,21.50
2018-03-04T13:12:21.457Z,19.58
2018-03-04T13:13:24.788Z,21.75
2018-03-04T13:14:28.217Z,20.75
2018-03-04T13:15:31.550Z,21.15
2018-03-04T13:16:34.883Z,22.00
2018-03-04T13:17:38.302Z,21.20
2018-03-04T13:18:41.832Z,20.88
2018-03-04T13:19:45.147Z,20.62
2018-03-04T13:20:48.498Z,24.75
2018-03-04T13:21:51.935Z,21.80
2018-03-04T13:22:55.260Z,22.65
2018-03-04T13:24:00.866Z,20.92
2018-03-04T13:25:04.391Z,19.30
2018-03-04T13:26:07.927Z,23.17
2018-03-04T13:27:11.328Z,23.52
2018-03-04T13:28:14.816Z,21.90
2018-03-04T13:29:18.241Z,22.75
2018-03-04T13:30:21.660Z,21.00
2018-03-04T13:31:25.118Z,23.62
2018-03-04T13:32:28.512Z,21.30
2018-03-04T13:33:31.978Z,23.00
2018-03-04T13:34:35.362Z,21.85
2018-03-04T13:35:38.715Z,20.98
2018-03-04T13:36:42.150Z,22.60